createdAt,value
2022-09-22T00:01:14.857Z,5.75
2022-09-22T00:03:43.619Z,5.75
2022-09-22T00:06:13.231Z,4.25
2022-09-22T00:08:41.925Z,6.00
2022-09-22T00:11:13.888Z,6.00
2022-09-22T00:13:42.336Z,6.25
2022-09-22T00:16:11.101Z,5.50
2022-09-22T00:18:39.092Z,5.00
2022-09-22T00:21:09.246Z,7.00
2022-09-22T00:23:38.427Z,6.00
2022-09-22T00:26:07.968Z,7.25
2022-09-22T00:28:38.066Z,4.00
2022-09-22T00:31:07.117Z,5.00
2022-09-22T00:33:34.977Z,5.75
2022-09-22T00:36:03.703Z,5.25
2022-09-22T00:38:31.597Z,5.25
2022-09-22T00:41:00.236Z,5.00
2022-09-22T00:43:30.119Z,6.00
2022-09-22T00:46:01.226Z,5.00
2022-09-22T00:48:29.788Z,5.00
2022-09-22T00:50:57.728Z,4.00
2022-09-22T00:53:26.555Z,5.00
2022-09-22T00:55:56.818Z,5.50
2022-09-22T00:58:27.946Z,5.75
2022-09-22T01:00:55.846Z,5.00
2022-09-22T01:03:29.867Z,4.50
2022-09-22T01:06:01.527Z,5.00
2022-09-22T01:08:29.715Z,5.00
2022-09-22T01:10:57.556Z,5.00
2022-09-22T01:13:28.205Z,6.50
2022-09-22T01:16:06.733Z,4.75
2022-09-22T01:18:43.077Z,5.00
2022-09-22T01:21:33.637Z,5.00
2022-09-22T01:27:40.210Z,5.25
2022-09-22T01:30:27.523Z,4.50
2022-09-22T01:33:04.052Z,5.00
2022-09-22T01:35:33.603Z,4.00
2022-09-22T01:38:05.853Z,5.50
2022-09-22T01:40:35.510Z,4.00
2022-09-22T01:43:08.859Z,5.00
2022-09-22T01:45:38.052Z,5.25
2022-09-22T01:48:11.128Z,5.00
2022-09-22T01:50:40.997Z,4.00
2022-09-22T01:53:11.546Z,3.25
2022-09-22T01:55:40.403Z,5.25
2022-09-22T01:58:09.719Z,5.50
2022-09-22T02:00:40.205Z,4.75
2022-09-22T02:03:09.450Z,5.75
2022-09-22T02:05:38.298Z,6.75
2022-09-22T02:08:09.961Z,4.50
2022-09-22T02:10:39.735Z,5.00
2022-09-22T02:13:07.870Z,5.00
2022-09-22T02:15:52.827Z,5.00
2022-09-22T02:18:24.048Z,4.25
2022-09-22T02:20:52.001Z,4.00
2022-09-22T02:23:20.161Z,6.00
2022-09-22T02:25:48.043Z,5.00
2022-09-22T02:28:16.962Z,5.00
2022-09-22T02:30:54.410Z,4.50
2022-09-22T02:33:38.110Z,4.25
2022-09-22T02:36:13.443Z,4.00
2022-09-22T02:38:43.875Z,4.25
2022-09-22T02:41:12.825Z,5.00
2022-09-22T02:43:42.916Z,5.00
2022-09-22T02:46:15.200Z,4.75
2022-09-22T02:48:46.433Z,4.75
2022-09-22T02:51:14.840Z,5.00
2022-09-22T02:53:42.963Z,4.25
2022-09-22T02:56:10.864Z,4.25
2022-09-22T02:58:38.706Z,4.25
2022-09-22T03:01:06.831Z,4.00
2022-09-22T03:03:35.060Z,4.75
2022-09-22T03:06:04.323Z,3.75
2022-09-22T03:08:32.210Z,5.00
2022-09-22T03:11:00.107Z,5.50
2022-09-22T03:13:28.247Z,5.00
2022-09-22T03:15:56.182Z,5.25
2022-09-22T03:18:24.081Z,4.00
2022-09-22T03:20:51.940Z,3.50
2022-09-22T03:23:21.448Z,4.00
2022-09-22T03:25:49.424Z,4.00
2022-09-22T03:28:17.333Z,3.50
2022-09-22T03:30:45.295Z,3.25
2022-09-22T03:33:13.449Z,4.00
2022-09-22T03:35:41.269Z,4.00
2022-09-22T03:38:09.129Z,4.00
2022-09-22T03:40:38.391Z,5.00
2022-09-22T03:43:06.655Z,3.00
2022-09-22T03:45:34.485Z,4.50
2022-09-22T03:48:02.756Z,3.00
2022-09-22T03:50:30.623Z,4.50
2022-09-22T03:52:58.778Z,4.00
2022-09-22T03:55:26.758Z,3.00
2022-09-22T03:57:56.008Z,3.75
2022-09-22T04:00:24.102Z,3.75
2022-09-22T04:02:52.504Z,4.00
2022-09-22T04:05:20.422Z,4.00
2022-09-22T04:07:48.420Z,3.00
2022-09-22T04:10:16.349Z,3.00
2022-09-22T04:12:44.484Z,3.75
2022-09-22T04:15:13.820Z,3.50
2022-09-22T04:17:41.654Z,3.25
2022-09-22T04:20:11.365Z,3.00
2022-09-22T04:22:39.497Z,4.50
2022-09-22T04:25:08.846Z,4.00
2022-09-22T04:27:37.082Z,2.50
2022-09-22T04:30:07.093Z,3.00
2022-09-22T04:32:36.448Z,3.00
2022-09-22T04:35:04.343Z,4.00
2022-09-22T04:37:32.202Z,3.75
2022-09-22T04:40:00.308Z,3.50
2022-09-22T04:42:28.121Z,3.00
2022-09-22T04:44:57.180Z,3.00
2022-09-22T04:47:25.070Z,4.00
2022-09-22T04:49:54.655Z,3.00
2022-09-22T04:52:22.548Z,3.75
2022-09-22T04:54:50.733Z,3.75
2022-09-22T04:57:20.525Z,3.50
2022-09-22T04:59:48.583Z,3.00
2022-09-22T05:02:16.460Z,4.50
2022-09-22T05:04:44.595Z,4.00
2022-09-22T05:07:14.003Z,3.00
2022-09-22T05:09:41.906Z,2.00
2022-09-22T05:12:09.786Z,3.00
2022-09-22T05:14:37.952Z,3.00
2022-09-22T05:17:06.242Z,3.50
2022-09-22T05:19:34.148Z,3.00
2022-09-22T05:22:01.962Z,3.00
2022-09-22T05:24:31.969Z,3.25
2022-09-22T05:26:59.983Z,3.75
2022-09-22T05:29:29.214Z,3.00
2022-09-22T05:31:57.244Z,4.25
2022-09-22T05:34:25.807Z,4.00
2022-09-22T05:36:55.139Z,3.50
2022-09-22T05:39:24.427Z,3.00
2022-09-22T05:41:53.737Z,3.00
2022-09-22T05:44:23.596Z,4.25
2022-09-22T05:46:51.466Z,5.00
2022-09-22T05:49:19.271Z,4.75
2022-09-22T05:51:47.130Z,4.25
2022-09-22T05:54:16.001Z,3.00
2022-09-22T05:56:45.925Z,4.50
2022-09-22T05:59:15.196Z,5.75
2022-09-22T06:01:43.218Z,5.00
2022-09-22T06:04:11.334Z,3.50
2022-09-22T06:06:39.234Z,5.00
2022-09-22T06:09:07.136Z,4.00
2022-09-22T06:11:35.029Z,3.00
2022-09-22T06:14:03.334Z,4.00
2022-09-22T06:16:33.097Z,4.50
2022-09-22T06:19:00.984Z,5.25
2022-09-22T06:21:28.862Z,3.50
2022-09-22T06:23:57.537Z,4.00
2022-09-22T06:26:25.549Z,4.00
2022-09-22T06:28:53.578Z,4.00
2022-09-22T06:31:21.448Z,3.00
2022-09-22T06:33:51.147Z,4.75
2022-09-22T06:36:24.006Z,4.00
2022-09-22T06:38:52.915Z,4.00
2022-09-22T06:41:20.832Z,4.00
2022-09-22T06:43:50.213Z,4.50
2022-09-22T06:46:19.501Z,3.75
2022-09-22T06:48:51.785Z,4.75
2022-09-22T06:51:19.656Z,4.25
2022-09-22T06:53:51.864Z,3.75
2022-09-22T06:56:20.680Z,3.00
2022-09-22T06:59:08.970Z,4.00
2022-09-22T07:01:37.484Z,5.00
2022-09-22T07:04:06.904Z,4.75
2022-09-22T07:06:35.834Z,3.75
2022-09-22T07:09:03.903Z,4.00
2022-09-22T07:11:34.230Z,3.25
2022-09-22T07:14:04.472Z,3.50
2022-09-22T07:16:32.426Z,5.00
2022-09-22T07:19:00.374Z,3.25
2022-09-22T07:21:32.953Z,3.00
2022-09-22T07:24:01.115Z,3.00
2022-09-22T07:26:32.499Z,4.75
2022-09-22T07:29:00.875Z,4.00
2022-09-22T07:31:29.656Z,3.00
2022-09-22T07:34:00.227Z,3.00
2022-09-22T07:36:30.499Z,4.00
2022-09-22T07:38:58.997Z,3.00
2022-09-22T07:41:28.469Z,5.00
2022-09-22T07:43:57.669Z,3.00
2022-09-22T07:46:25.585Z,3.75
2022-09-22T07:48:53.501Z,4.50
2022-09-22T07:51:22.107Z,4.00
2022-09-22T07:53:53.671Z,4.00
2022-09-22T07:56:23.639Z,3.75
2022-09-22T07:58:52.136Z,4.25
2022-09-22T08:01:21.542Z,3.00
2022-09-22T08:03:50.522Z,3.00
2022-09-22T08:06:20.043Z,3.00
2022-09-22T08:08:52.452Z,3.00
2022-09-22T08:11:22.669Z,4.00
2022-09-22T08:13:52.616Z,3.75
2022-09-22T08:16:22.516Z,3.50
2022-09-22T08:18:56.564Z,4.25
2022-09-22T08:21:24.476Z,5.00
2022-09-22T08:23:53.097Z,3.25
2022-09-22T08:26:22.871Z,4.00
2022-09-22T08:28:52.397Z,3.00
2022-09-22T08:31:21.141Z,4.00
2022-09-22T08:33:49.230Z,5.00
2022-09-22T08:36:17.222Z,4.00
2022-09-22T08:38:48.596Z,4.00
2022-09-22T08:41:20.176Z,4.25
2022-09-22T08:43:55.387Z,4.75
2022-09-22T08:46:28.218Z,5.25
2022-09-22T08:49:14.402Z,4.00
2022-09-22T08:51:53.647Z,4.00
2022-09-22T08:54:23.176Z,3.00
2022-09-22T08:56:57.541Z,5.00
2022-09-22T08:59:30.190Z,2.25
2022-09-22T09:02:05.042Z,4.00
2022-09-22T09:04:45.509Z,3.25
2022-09-22T09:07:16.426Z,4.75
2022-09-22T09:09:52.215Z,4.00
2022-09-22T09:12:37.236Z,4.25
2022-09-22T09:15:21.579Z,3.00
2022-09-22T09:17:49.479Z,2.75
2022-09-22T09:20:18.640Z,3.75
2022-09-22T09:22:49.392Z,5.00
2022-09-22T09:25:24.606Z,3.25
2022-09-22T09:27:54.704Z,3.00
2022-09-22T09:30:23.976Z,2.00
2022-09-22T09:32:52.950Z,3.25
2022-09-22T09:35:26.562Z,4.00
2022-09-22T09:37:55.333Z,4.00
2022-09-22T09:40:23.625Z,5.00
2022-09-22T09:42:56.661Z,3.00
2022-09-22T09:45:27.754Z,3.25
2022-09-22T09:48:12.038Z,2.00
2022-09-22T09:50:39.898Z,3.25
2022-09-22T09:53:12.067Z,3.25
2022-09-22T09:55:40.044Z,2.25
2022-09-22T09:58:11.991Z,3.75
2022-09-22T10:00:56.305Z,3.33
2022-09-22T10:03:28.022Z,2.75
2022-09-22T10:06:00.585Z,3.00
2022-09-22T10:08:28.513Z,3.00
2022-09-22T10:10:56.752Z,3.00
2022-09-22T10:13:34.881Z,3.00
2022-09-22T10:16:26.255Z,3.00
2022-09-22T10:19:05.031Z,2.75
2022-09-22T10:21:33.295Z,2.75
2022-09-22T10:24:01.745Z,3.00
2022-09-22T10:26:30.339Z,2.25
2022-09-22T10:29:09.450Z,2.75
2022-09-22T10:31:39.009Z,2.50
2022-09-22T10:34:07.754Z,3.75
2022-09-22T10:36:35.601Z,3.00
2022-09-22T10:39:03.483Z,3.00
2022-09-22T10:41:34.223Z,2.75
2022-09-22T10:44:21.221Z,3.00
2022-09-22T10:47:06.242Z,2.00
2022-09-22T10:49:42.620Z,3.75
2022-09-22T10:52:14.285Z,2.75
2022-09-22T10:55:00.062Z,2.75
2022-09-22T10:57:35.536Z,3.00
2022-09-22T11:00:11.240Z,3.25
2022-09-22T11:03:18.240Z,2.25
2022-09-22T11:06:22.109Z,3.50
2022-09-22T11:09:14.516Z,3.50
2022-09-22T11:12:03.332Z,3.00
2022-09-22T11:14:38.427Z,2.50
2022-09-22T11:17:11.529Z,3.00
2022-09-22T11:19:47.998Z,2.00
2022-09-22T11:22:27.358Z,4.00
2022-09-22T11:25:04.510Z,4.00
2022-09-22T11:27:37.674Z,3.50
2022-09-22T11:30:20.471Z,3.00
2022-09-22T11:33:08.567Z,4.75
2022-09-22T11:35:43.595Z,3.00
2022-09-22T11:38:22.355Z,5.75
2022-09-22T11:41:00.245Z,4.50
2022-09-22T11:43:38.312Z,5.00
2022-09-22T11:46:09.126Z,4.00
2022-09-22T11:48:44.661Z,4.00
2022-09-22T11:51:27.729Z,5.75
2022-09-22T11:54:03.766Z,4.75
2022-09-22T11:56:39.308Z,4.00
2022-09-22T11:59:20.389Z,4.00
2022-09-22T12:01:48.302Z,3.00
2022-09-22T12:04:22.866Z,3.50
2022-09-22T12:06:52.915Z,3.75
2022-09-22T12:09:29.621Z,3.25
2022-09-22T12:11:59.550Z,2.50
2022-09-22T12:14:28.400Z,3.00
2022-09-22T12:16:58.781Z,3.00
2022-09-22T12:19:30.651Z,3.00
2022-09-22T12:22:05.851Z,4.00
2022-09-22T12:24:34.829Z,3.00
2022-09-22T12:27:11.278Z,3.75
2022-09-22T12:29:39.608Z,3.00
2022-09-22T12:32:07.829Z,4.00
2022-09-22T12:34:37.585Z,4.00
2022-09-22T12:37:13.914Z,3.00
2022-09-22T12:39:42.532Z,3.00
2022-09-22T12:42:20.010Z,4.00
2022-09-22T12:44:50.274Z,3.00
2022-09-22T12:47:20.235Z,3.75
2022-09-22T12:49:51.799Z,2.25
2022-09-22T12:53:04.159Z,2.75
2022-09-22T12:55:38.402Z,3.25
2022-09-22T12:58:44.905Z,5.00
2022-09-22T13:01:35.093Z,2.50
2022-09-22T13:04:21.228Z,3.25
2022-09-22T13:06:56.298Z,3.00
2022-09-22T13:09:27.016Z,3.25
2022-09-22T13:12:26.096Z,4.00
2022-09-22T13:15:19.921Z,4.00
2022-09-22T13:17:49.399Z,3.25
2022-09-22T13:20:22.737Z,5.00
2022-09-22T13:22:51.109Z,5.25
2022-09-22T13:25:31.222Z,3.75
2022-09-22T13:28:09.195Z,5.00
2022-09-22T13:30:37.636Z,4.25
2022-09-22T13:33:05.930Z,4.00
2022-09-22T13:35:34.958Z,4.00
2022-09-22T13:38:03.295Z,5.25
2022-09-22T13:40:34.927Z,4.00
2022-09-22T13:43:06.586Z,5.00
2022-09-22T13:45:34.489Z,4.25
2022-09-22T13:48:08.499Z,4.50
2022-09-22T13:50:40.735Z,5.00
2022-09-22T13:53:08.587Z,3.50
2022-09-22T13:55:38.291Z,5.50
2022-09-22T13:58:13.529Z,4.00
2022-09-22T14:01:08.737Z,3.75
2022-09-22T14:03:36.195Z,4.75
2022-09-22T14:06:04.092Z,4.50
2022-09-22T14:08:32.480Z,4.00
2022-09-22T14:11:02.173Z,4.50
2022-09-22T14:13:40.450Z,4.00
2022-09-22T14:16:13.644Z,4.25
2022-09-22T14:18:43.165Z,3.50
2022-09-22T14:21:12.069Z,4.25
2022-09-22T14:23:44.366Z,4.00
2022-09-22T14:26:33.464Z,4.00
2022-09-22T14:29:09.277Z,4.00
2022-09-22T14:31:38.828Z,5.00
2022-09-22T14:34:08.869Z,5.50
2022-09-22T14:36:37.935Z,4.50
2022-09-22T14:39:10.293Z,5.50
2022-09-22T14:41:40.764Z,7.50
2022-09-22T14:44:28.099Z,6.00
2022-09-22T14:46:56.582Z,4.75
2022-09-22T14:49:37.396Z,5.25
2022-09-22T14:52:07.444Z,4.00
2022-09-22T14:54:35.956Z,5.00
2022-09-22T14:57:07.698Z,6.50
2022-09-22T14:59:54.208Z,6.25
2022-09-22T15:02:34.237Z,5.00
2022-09-22T15:05:03.418Z,6.00
2022-09-22T15:07:31.538Z,6.00
2022-09-22T15:10:00.158Z,5.00
2022-09-22T15:12:38.072Z,4.00
2022-09-22T15:15:16.742Z,7.00
2022-09-22T15:18:02.337Z,6.00
2022-09-22T15:20:34.988Z,5.00
2022-09-22T15:23:02.964Z,5.75
2022-09-22T15:25:30.845Z,5.00
2022-09-22T15:28:00.277Z,4.50
2022-09-22T15:30:32.169Z,4.00
2022-09-22T15:33:03.800Z,4.00
2022-09-22T15:35:34.503Z,5.00
2022-09-22T15:38:02.382Z,5.00
2022-09-22T15:40:30.648Z,6.00
2022-09-22T15:43:13.297Z,4.25
2022-09-22T15:45:47.897Z,4.00
2022-09-22T15:48:24.806Z,6.00
2022-09-22T15:50:52.999Z,5.00
2022-09-22T15:53:20.881Z,7.00
2022-09-22T15:55:49.023Z,4.50
2022-09-22T15:58:18.524Z,5.00
2022-09-22T16:00:47.198Z,4.75
2022-09-22T16:03:16.662Z,5.00
2022-09-22T16:05:44.990Z,6.00
2022-09-22T16:08:15.256Z,4.00
2022-09-22T16:10:44.267Z,5.00
2022-09-22T16:13:13.006Z,4.25
2022-09-22T16:15:42.288Z,4.00
2022-09-22T16:18:10.258Z,5.00
2022-09-22T16:20:38.446Z,4.25
2022-09-22T16:23:07.419Z,5.00
2022-09-22T16:25:35.319Z,5.00
2022-09-22T16:28:03.720Z,4.25
2022-09-22T16:30:31.575Z,4.00
2022-09-22T16:33:01.959Z,5.00
2022-09-22T16:35:30.121Z,5.50
2022-09-22T16:37:58.032Z,5.00
2022-09-22T16:40:26.281Z,4.00
2022-09-22T16:42:54.219Z,4.25
2022-09-22T16:45:42.181Z,3.00
2022-09-22T16:48:11.475Z,4.75
2022-09-22T16:50:39.397Z,5.50
2022-09-22T16:53:11.180Z,5.00
2022-09-22T16:55:39.049Z,4.00
2022-09-22T16:58:08.451Z,3.00
2022-09-22T17:00:36.806Z,3.00
2022-09-22T17:03:05.046Z,2.50
2022-09-22T17:05:35.274Z,4.25
2022-09-22T17:08:06.631Z,4.50
2022-09-22T17:10:35.728Z,5.25
2022-09-22T17:13:05.309Z,4.25
2022-09-22T17:15:35.834Z,4.00
2022-09-22T17:18:04.404Z,4.00
2022-09-22T17:20:32.275Z,4.75
2022-09-22T17:23:01.562Z,5.00
2022-09-22T17:25:29.431Z,4.00
2022-09-22T17:27:57.904Z,4.00
2022-09-22T17:30:26.294Z,4.00
2022-09-22T17:32:54.192Z,3.75
2022-09-22T17:35:22.060Z,4.00
2022-09-22T17:37:52.189Z,6.00
2022-09-22T17:40:21.945Z,4.50
2022-09-22T17:42:50.063Z,4.25
2022-09-22T17:45:18.111Z,4.00
2022-09-22T17:48:03.418Z,4.00
2022-09-22T17:50:48.974Z,3.00
2022-09-22T17:53:34.290Z,3.50
2022-09-22T17:56:05.618Z,4.00
2022-09-22T17:58:33.951Z,4.25
2022-09-22T18:01:01.957Z,4.00
2022-09-22T18:03:30.112Z,3.75
2022-09-22T18:05:58.326Z,5.00
2022-09-22T18:08:26.297Z,4.00
2022-09-22T18:10:54.407Z,4.00
2022-09-22T18:13:24.357Z,3.75
2022-09-22T18:15:52.664Z,4.75
2022-09-22T18:18:20.583Z,3.25
2022-09-22T18:20:48.457Z,3.00
2022-09-22T18:23:18.003Z,4.00
2022-09-22T18:25:46.392Z,4.00
2022-09-22T18:28:14.307Z,4.00
2022-09-22T18:30:43.646Z,3.00
2022-09-22T18:33:12.945Z,3.75
2022-09-22T18:35:45.457Z,4.00
2022-09-22T18:38:14.066Z,4.25
2022-09-22T18:40:42.186Z,5.00
2022-09-22T18:43:10.555Z,4.25
2022-09-22T18:45:38.425Z,5.00
2022-09-22T18:48:07.728Z,3.25
2022-09-22T18:50:35.780Z,4.00
2022-09-22T18:53:03.971Z,5.50
2022-09-22T18:55:32.462Z,5.25
2022-09-22T18:58:01.038Z,3.00
2022-09-22T19:00:28.923Z,3.50
2022-09-22T19:02:57.512Z,3.00
2022-09-22T19:05:28.331Z,4.00
2022-09-22T19:07:58.426Z,4.00
2022-09-22T19:10:26.288Z,3.00
2022-09-22T19:12:54.579Z,4.00
2022-09-22T19:15:23.635Z,4.25
2022-09-22T19:17:51.495Z,5.50
2022-09-22T19:20:20.943Z,5.00
2022-09-22T19:22:50.976Z,4.25
2022-09-22T19:25:20.062Z,4.00
2022-09-22T19:27:48.047Z,5.00
2022-09-22T19:30:19.441Z,4.25
2022-09-22T19:32:50.301Z,5.00
2022-09-22T19:35:18.191Z,5.25
2022-09-22T19:37:46.226Z,4.00
2022-09-22T19:40:18.667Z,5.75
2022-09-22T19:42:46.836Z,5.00
2022-09-22T19:45:14.877Z,5.00
2022-09-22T19:47:42.819Z,5.25
2022-09-22T19:50:10.782Z,5.00
2022-09-22T19:52:38.779Z,5.50
2022-09-22T19:55:07.756Z,5.00
2022-09-22T19:57:41.092Z,4.75
2022-09-22T20:00:13.116Z,5.75
2022-09-22T20:02:42.145Z,5.50
2022-09-22T20:05:22.504Z,4.00
2022-09-22T20:07:50.720Z,5.00
2022-09-22T20:10:19.199Z,4.00
2022-09-22T20:12:48.558Z,4.00
2022-09-22T20:15:16.489Z,4.00
2022-09-22T20:17:45.907Z,5.00
2022-09-22T20:20:14.334Z,6.00
2022-09-22T20:22:42.719Z,6.00
2022-09-22T20:25:20.081Z,5.00
2022-09-22T20:27:49.503Z,5.00
2022-09-22T20:30:17.719Z,4.75
2022-09-22T20:32:46.619Z,5.25
2022-09-22T20:35:15.452Z,5.00
2022-09-22T20:37:43.395Z,6.25
2022-09-22T20:40:13.245Z,7.00
2022-09-22T20:42:41.286Z,5.75
2022-09-22T20:45:13.637Z,6.75
2022-09-22T20:47:41.795Z,5.00
2022-09-22T20:50:11.885Z,6.75
2022-09-22T20:52:40.849Z,6.00
2022-09-22T20:55:10.216Z,8.75
2022-09-22T20:57:38.962Z,7.75
2022-09-22T21:00:09.068Z,6.25
2022-09-22T21:02:38.506Z,6.75
2022-09-22T21:05:06.811Z,4.75
2022-09-22T21:07:34.847Z,6.50
2022-09-22T21:10:20.267Z,6.50
2022-09-22T21:12:48.292Z,5.75
2022-09-22T21:15:16.371Z,6.00
2022-09-22T21:17:47.998Z,5.00
2022-09-22T21:20:15.994Z,5.00
2022-09-22T21:22:44.419Z,4.75
2022-09-22T21:25:12.395Z,4.25
2022-09-22T21:27:40.381Z,6.00
2022-09-22T21:30:10.607Z,6.00
2022-09-22T21:32:39.353Z,5.25
2022-09-22T21:35:10.480Z,5.00
2022-09-22T21:37:38.432Z,4.75
2022-09-22T21:40:07.489Z,4.75
2022-09-22T21:42:36.284Z,6.00
2022-09-22T21:45:05.019Z,6.00
2022-09-22T21:47:32.976Z,6.50
2022-09-22T21:50:00.851Z,4.00
2022-09-22T21:52:30.102Z,4.00
2022-09-22T21:54:58.270Z,4.00
2022-09-22T21:57:26.178Z,3.75
2022-09-22T21:59:56.762Z,5.25
2022-09-22T22:02:24.787Z,5.25
2022-09-22T22:04:52.926Z,5.50
2022-09-22T22:07:20.931Z,5.25
2022-09-22T22:09:50.229Z,4.75
2022-09-22T22:12:18.090Z,5.00
2022-09-22T22:14:47.152Z,3.75
2022-09-22T22:17:15.004Z,5.00
2022-09-22T22:19:42.908Z,7.00
2022-09-22T22:22:11.168Z,6.50
2022-09-22T22:24:42.450Z,7.00
2022-09-22T22:27:13.640Z,6.25
2022-09-22T22:29:41.501Z,7.00
2022-09-22T22:32:10.550Z,7.50
2022-09-22T22:34:38.884Z,7.00
2022-09-22T22:37:10.039Z,8.75
2022-09-22T22:39:37.923Z,7.00
2022-09-22T22:42:06.981Z,7.25
2022-09-22T22:44:36.789Z,7.00
2022-09-22T22:47:05.204Z,7.00
2022-09-22T22:49:33.551Z,6.75
2022-09-22T22:52:01.508Z,7.00
2022-09-22T22:54:29.630Z,10.00
2022-09-22T22:56:57.452Z,6.50
2022-09-22T22:59:25.367Z,7.00
2022-09-22T23:01:54.661Z,7.00
2022-09-22T23:04:24.018Z,6.75
2022-09-22T23:06:51.858Z,7.00
2022-09-22T23:09:19.707Z,6.00
2022-09-22T23:11:47.625Z,6.00
2022-09-22T23:14:16.145Z,6.25
2022-09-22T23:16:45.057Z,6.50
2022-09-22T23:19:14.963Z,6.00
2022-09-22T23:21:42.877Z,6.00
2022-09-22T23:24:15.299Z,5.25
2022-09-22T23:26:43.405Z,6.00
2022-09-22T23:29:11.640Z,5.00
2022-09-22T23:31:39.497Z,6.75
2022-09-22T23:34:07.687Z,6.50
2022-09-22T23:36:37.072Z,6.00
2022-09-22T23:39:05.186Z,6.00
2022-09-22T23:41:33.265Z,5.75
2022-09-22T23:44:02.877Z,5.25
2022-09-22T23:46:30.864Z,5.00
2022-09-22T23:49:00.203Z,6.00
2022-09-22T23:51:28.365Z,4.50
2022-09-22T23:53:57.887Z,5.25
2022-09-22T23:56:25.822Z,6.00
2022-09-22T23:58:53.679Z,5.25
